createdAt,value
2023-08-27T00:02:29.121Z,44.28
2023-08-27T00:04:58.870Z,44.56
2023-08-27T00:07:31.589Z,44.18
2023-08-27T00:10:02.151Z,44.22
2023-08-27T00:12:32.314Z,44.25
2023-08-27T00:15:02.915Z,44.41
2023-08-27T00:17:32.979Z,44.38
2023-08-27T00:20:05.533Z,44.38
2023-08-27T00:22:38.844Z,44.82
2023-08-27T00:25:10.845Z,44.61
2023-08-27T00:27:41.915Z,44.34
2023-08-27T00:30:13.748Z,44.32
2023-08-27T00:32:43.778Z,44.58
2023-08-27T00:35:14.313Z,45.02
2023-08-27T00:37:45.860Z,45.03
2023-08-27T00:40:17.697Z,44.39
2023-08-27T00:42:48.269Z,44.72
2023-08-27T00:45:18.641Z,44.91
2023-08-27T00:47:49.315Z,45.09
2023-08-27T00:50:20.783Z,44.68
2023-08-27T00:52:54.780Z,44.73
2023-08-27T00:55:24.840Z,45.28
2023-08-27T00:57:57.857Z,44.82
2023-08-27T01:00:28.687Z,44.56
2023-08-27T01:02:59.394Z,44.75
2023-08-27T01:05:31.141Z,45.00
2023-08-27T01:08:17.778Z,44.94
2023-08-27T01:11:01.279Z,45.20
2023-08-27T01:13:40.361Z,44.94
2023-08-27T01:16:12.658Z,44.99
2023-08-27T01:18:44.822Z,45.44
2023-08-27T01:21:22.835Z,45.32
2023-08-27T01:23:53.747Z,45.26
2023-08-27T01:26:31.573Z,45.20
2023-08-27T01:29:11.972Z,45.26
2023-08-27T01:31:51.507Z,45.32
2023-08-27T01:34:26.335Z,45.52
2023-08-27T01:36:59.685Z,45.24
2023-08-27T01:39:29.630Z,45.25
2023-08-27T01:42:00.033Z,45.37
2023-08-27T01:44:30.482Z,45.43
2023-08-27T01:47:00.238Z,45.29
2023-08-27T01:49:30.871Z,45.84
2023-08-27T01:52:02.717Z,45.73
2023-08-27T01:54:36.350Z,45.72
2023-08-27T01:57:07.443Z,45.48
2023-08-27T01:59:37.866Z,45.49
2023-08-27T02:02:08.624Z,45.73
2023-08-27T02:04:39.317Z,45.84
2023-08-27T02:07:12.642Z,45.33
2023-08-27T02:09:43.060Z,45.31
2023-08-27T02:12:13.408Z,45.93
2023-08-27T02:14:44.882Z,46.03
2023-08-27T02:17:15.048Z,45.60
2023-08-27T02:19:45.861Z,45.93
2023-08-27T02:22:17.875Z,45.83
2023-08-27T02:24:47.579Z,45.41
2023-08-27T02:27:18.036Z,45.45
2023-08-27T02:29:48.442Z,46.11
2023-08-27T02:32:18.753Z,46.08
2023-08-27T02:34:48.457Z,46.09
2023-08-27T02:37:20.251Z,46.14
2023-08-27T02:39:51.005Z,45.99
2023-08-27T02:42:21.100Z,46.04
2023-08-27T02:44:51.513Z,46.32
2023-08-27T02:47:22.074Z,46.15
2023-08-27T02:49:52.599Z,45.93
2023-08-27T02:52:25.006Z,46.15
2023-08-27T02:54:55.017Z,45.81
2023-08-27T02:57:25.806Z,46.10
2023-08-27T02:59:58.480Z,45.80
2023-08-27T03:02:29.740Z,46.31
2023-08-27T03:05:02.806Z,46.45
2023-08-27T03:07:49.487Z,46.25
2023-08-27T03:10:19.471Z,46.24
2023-08-27T03:12:50.846Z,46.23
2023-08-27T03:15:21.417Z,46.24
2023-08-27T03:17:51.955Z,46.31
2023-08-27T03:20:22.396Z,46.45
2023-08-27T03:22:55.191Z,46.42
2023-08-27T03:25:25.693Z,46.33
2023-08-27T03:27:55.394Z,45.99
2023-08-27T03:30:25.946Z,46.13
2023-08-27T03:32:56.459Z,46.45
2023-08-27T03:35:27.012Z,46.32
2023-08-27T03:37:59.449Z,45.97
2023-08-27T03:40:30.135Z,46.17
2023-08-27T03:42:59.997Z,46.58
2023-08-27T03:45:31.272Z,46.47
2023-08-27T03:48:01.852Z,46.08
2023-08-27T03:50:33.562Z,46.48
2023-08-27T03:53:05.637Z,46.37
2023-08-27T03:55:43.005Z,46.88
2023-08-27T03:58:14.156Z,46.15
2023-08-27T04:00:45.114Z,46.32
2023-08-27T04:03:15.804Z,46.74
2023-08-27T04:05:49.931Z,46.44
2023-08-27T04:08:22.742Z,46.40
2023-08-27T04:10:54.267Z,46.76
2023-08-27T04:13:24.253Z,46.80
2023-08-27T04:16:03.075Z,46.95
2023-08-27T04:18:34.249Z,46.95
2023-08-27T04:21:06.265Z,46.60
2023-08-27T04:23:38.537Z,46.98
2023-08-27T04:26:08.983Z,46.82
2023-08-27T04:28:39.893Z,46.79
2023-08-27T04:31:10.139Z,46.56
2023-08-27T04:33:39.953Z,46.66
2023-08-27T04:36:10.726Z,46.81
2023-08-27T04:38:43.162Z,47.19
2023-08-27T04:41:11.884Z,46.70
2023-08-27T04:43:42.359Z,46.92
2023-08-27T04:46:12.179Z,47.17
2023-08-27T04:48:42.797Z,46.62
2023-08-27T04:51:15.543Z,46.61
2023-08-27T04:53:48.156Z,47.26
2023-08-27T04:56:18.676Z,47.24
2023-08-27T04:58:49.364Z,46.86
2023-08-27T05:01:28.550Z,46.79
2023-08-27T05:03:59.215Z,47.06
2023-08-27T05:06:29.881Z,47.33
2023-08-27T05:09:01.936Z,46.78
2023-08-27T05:11:32.583Z,47.46
2023-08-27T05:14:03.393Z,47.01
2023-08-27T05:16:35.966Z,47.04
2023-08-27T05:19:05.979Z,46.88
2023-08-27T05:21:36.501Z,47.23
2023-08-27T05:24:09.568Z,47.22
2023-08-27T05:26:40.019Z,46.90
2023-08-27T05:29:10.505Z,47.45
2023-08-27T05:31:41.055Z,47.23
2023-08-27T05:34:10.951Z,46.85
2023-08-27T05:36:41.399Z,46.66
2023-08-27T05:39:15.743Z,47.09
2023-08-27T05:41:46.246Z,46.56
2023-08-27T05:44:16.913Z,47.03
2023-08-27T05:46:46.816Z,47.10
2023-08-27T05:49:17.419Z,46.97
2023-08-27T05:51:48.161Z,46.98
2023-08-27T05:54:20.338Z,46.65
2023-08-27T05:56:51.071Z,46.31
2023-08-27T05:59:21.782Z,46.52
2023-08-27T06:01:52.674Z,46.38
2023-08-27T06:04:23.449Z,45.78
2023-08-27T06:06:54.077Z,45.68
2023-08-27T06:09:26.648Z,45.97
2023-08-27T06:11:57.271Z,45.84
2023-08-27T06:14:27.137Z,45.75
2023-08-27T06:16:57.638Z,45.67
2023-08-27T06:19:39.229Z,45.79
2023-08-27T06:22:13.928Z,45.69
2023-08-27T06:24:45.315Z,45.49
2023-08-27T06:27:16.385Z,45.21
2023-08-27T06:29:47.301Z,45.67
2023-08-27T06:32:18.197Z,45.68
2023-08-27T06:34:48.517Z,45.04
2023-08-27T06:37:19.164Z,45.30
2023-08-27T06:39:51.379Z,45.45
2023-08-27T06:42:21.915Z,45.08
2023-08-27T06:44:52.472Z,45.06
2023-08-27T06:47:22.906Z,45.49
2023-08-27T06:49:54.456Z,45.05
2023-08-27T06:52:24.871Z,44.74
2023-08-27T06:54:56.814Z,45.31
2023-08-27T06:57:28.615Z,45.00
2023-08-27T06:59:58.380Z,44.94
2023-08-27T07:02:29.543Z,45.17
2023-08-27T07:05:00.304Z,44.56
2023-08-27T07:07:31.808Z,44.40
2023-08-27T07:10:04.727Z,44.41
2023-08-27T07:12:36.160Z,44.41
2023-08-27T07:15:07.329Z,44.66
2023-08-27T07:17:37.785Z,44.43
2023-08-27T07:20:10.708Z,44.57
2023-08-27T07:22:41.270Z,43.94
2023-08-27T07:25:15.671Z,44.37
2023-08-27T07:27:47.895Z,44.13
2023-08-27T07:30:18.496Z,44.12
2023-08-27T07:32:49.051Z,44.03
2023-08-27T07:35:19.798Z,44.23
2023-08-27T07:37:50.325Z,43.83
2023-08-27T07:40:23.148Z,43.62
2023-08-27T07:42:54.783Z,43.71
2023-08-27T07:45:25.686Z,43.89
2023-08-27T07:47:56.227Z,43.88
2023-08-27T07:53:10.170Z,43.65
2023-08-27T07:55:41.619Z,43.75
2023-08-27T07:58:11.602Z,43.60
2023-08-27T08:00:42.163Z,43.61
2023-08-27T08:03:13.132Z,43.31
2023-08-27T08:05:43.829Z,43.87
2023-08-27T08:08:14.783Z,43.74
2023-08-27T08:10:47.122Z,42.96
2023-08-27T08:13:18.276Z,43.24
2023-08-27T08:15:52.582Z,43.39
2023-08-27T08:18:23.144Z,43.06
2023-08-27T08:20:57.751Z,42.88
2023-08-27T08:23:28.895Z,43.09
2023-08-27T08:26:02.382Z,43.59
2023-08-27T08:28:33.222Z,43.32
2023-08-27T08:31:04.793Z,43.45
2023-08-27T08:33:35.495Z,42.93
2023-08-27T08:36:06.535Z,43.12
2023-08-27T08:38:36.433Z,43.10
2023-08-27T08:41:12.649Z,43.56
2023-08-27T08:43:48.807Z,43.04
2023-08-27T08:46:22.716Z,43.26
2023-08-27T08:48:56.191Z,42.78
2023-08-27T08:51:29.253Z,43.19
2023-08-27T08:54:08.411Z,43.27
2023-08-27T08:56:47.740Z,43.13
2023-08-27T08:59:17.544Z,42.67
2023-08-27T09:01:51.839Z,42.63
2023-08-27T09:04:38.263Z,43.11
2023-08-27T09:07:09.353Z,42.52
2023-08-27T09:09:42.352Z,42.72
2023-08-27T09:12:17.394Z,42.39
2023-08-27T09:14:47.623Z,42.60
2023-08-27T09:17:21.670Z,42.83
2023-08-27T09:19:54.226Z,42.51
2023-08-27T09:22:27.111Z,42.60
2023-08-27T09:24:58.838Z,42.21
2023-08-27T09:27:54.977Z,42.75
2023-08-27T09:30:26.644Z,42.26
2023-08-27T09:32:58.441Z,42.46
2023-08-27T09:35:41.434Z,42.26
2023-08-27T09:38:15.152Z,42.50
2023-08-27T09:40:46.018Z,42.03
2023-08-27T09:43:19.014Z,42.44
2023-08-27T09:45:49.750Z,42.26
2023-08-27T09:48:27.816Z,42.01
2023-08-27T09:51:07.787Z,42.45
2023-08-27T09:53:38.749Z,42.03
2023-08-27T09:56:09.258Z,41.87
2023-08-27T09:58:44.226Z,42.34
2023-08-27T10:01:14.850Z,42.12
2023-08-27T10:03:47.427Z,42.18
2023-08-27T10:06:17.559Z,42.00
2023-08-27T10:08:54.239Z,42.06
2023-08-27T10:11:26.571Z,42.00
2023-08-27T10:14:00.328Z,41.78
2023-08-27T10:16:31.856Z,41.97
2023-08-27T10:19:02.834Z,41.73
2023-08-27T10:21:34.412Z,41.90
2023-08-27T10:24:06.560Z,41.93
2023-08-27T10:26:38.070Z,42.04
2023-08-27T10:29:11.212Z,41.87
2023-08-27T10:31:41.585Z,42.41
2023-08-27T10:34:11.725Z,42.28
2023-08-27T10:36:45.529Z,42.05
2023-08-27T10:39:19.108Z,42.15
2023-08-27T10:41:50.101Z,41.53
2023-08-27T10:44:24.270Z,41.62
2023-08-27T10:47:16.257Z,42.23
2023-08-27T10:49:49.214Z,41.71
2023-08-27T10:52:22.696Z,41.79
2023-08-27T10:55:05.105Z,41.79
2023-08-27T10:57:40.112Z,41.92
2023-08-27T11:00:26.920Z,42.31
2023-08-27T11:03:01.516Z,42.11
2023-08-27T11:05:32.880Z,42.15
2023-08-27T11:08:16.847Z,42.20
2023-08-27T11:10:47.551Z,41.99
2023-08-27T11:13:40.779Z,41.94
2023-08-27T11:16:18.704Z,41.58
2023-08-27T11:18:52.561Z,41.56
2023-08-27T11:21:24.528Z,41.96
2023-08-27T11:24:20.832Z,42.07
2023-08-27T11:27:00.436Z,42.00
2023-08-27T11:29:31.622Z,42.06
2023-08-27T11:32:05.769Z,42.43
2023-08-27T11:34:39.789Z,41.89
2023-08-27T11:37:11.117Z,41.72
2023-08-27T11:39:42.892Z,42.08
2023-08-27T11:42:15.252Z,41.79
2023-08-27T11:44:52.934Z,41.76
2023-08-27T11:47:26.554Z,42.28
2023-08-27T11:50:00.986Z,42.14
2023-08-27T11:52:34.511Z,42.46
2023-08-27T11:55:05.475Z,42.07
2023-08-27T11:57:36.928Z,41.61
2023-08-27T12:00:14.545Z,41.91
2023-08-27T12:02:47.337Z,41.91
2023-08-27T12:05:18.999Z,42.06
2023-08-27T12:07:50.382Z,42.06
2023-08-27T12:10:35.280Z,42.52
2023-08-27T12:13:06.283Z,42.11
2023-08-27T12:15:37.555Z,42.10
2023-08-27T12:18:13.214Z,42.23
2023-08-27T12:20:43.356Z,42.63
2023-08-27T12:23:15.934Z,42.61
2023-08-27T12:25:52.114Z,42.74
2023-08-27T12:28:22.952Z,42.23
2023-08-27T12:30:55.399Z,42.51
2023-08-27T12:33:41.189Z,42.22
2023-08-27T12:36:11.671Z,42.46
2023-08-27T12:38:41.832Z,42.46
2023-08-27T12:41:14.802Z,42.39
2023-08-27T12:43:44.663Z,42.11
2023-08-27T12:46:15.298Z,42.09
2023-08-27T12:48:49.591Z,42.31
2023-08-27T12:51:20.382Z,42.38
2023-08-27T12:53:50.911Z,42.70
2023-08-27T12:56:21.667Z,42.40
2023-08-27T12:58:51.586Z,42.59
2023-08-27T13:01:22.992Z,42.51
2023-08-27T13:03:55.134Z,41.89
2023-08-27T13:06:26.263Z,42.01
2023-08-27T13:08:56.741Z,42.44
2023-08-27T13:11:27.597Z,41.94
2023-08-27T13:13:58.016Z,42.31
2023-08-27T13:16:29.686Z,41.95
2023-08-27T13:19:02.404Z,42.15
2023-08-27T13:21:32.292Z,42.10
2023-08-27T13:24:05.055Z,42.19
2023-08-27T13:26:36.219Z,42.14
2023-08-27T13:29:08.367Z,42.15
2023-08-27T13:31:39.695Z,42.46
2023-08-27T13:34:11.390Z,42.32
2023-08-27T13:36:43.833Z,42.41
2023-08-27T13:39:13.897Z,42.11
2023-08-27T13:41:44.769Z,42.47
2023-08-27T13:44:15.471Z,42.05
2023-08-27T13:46:49.480Z,42.33
2023-08-27T13:49:22.305Z,41.73
2023-08-27T13:51:52.542Z,42.54
2023-08-27T13:54:22.317Z,41.96
2023-08-27T13:56:52.827Z,42.19
2023-08-27T13:59:23.688Z,41.89
2023-08-27T14:01:53.833Z,42.28
2023-08-27T14:04:25.711Z,42.46
2023-08-27T14:06:57.942Z,42.28
2023-08-27T14:09:29.685Z,42.41
2023-08-27T14:12:01.284Z,42.67
2023-08-27T14:14:32.368Z,42.50
2023-08-27T14:17:02.949Z,42.45
2023-08-27T14:19:35.726Z,42.59
2023-08-27T14:22:06.680Z,42.49
2023-08-27T14:24:37.690Z,42.48
2023-08-27T14:27:08.740Z,42.45
2023-08-27T14:29:40.313Z,42.38
2023-08-27T14:32:10.433Z,42.57
2023-08-27T14:34:42.840Z,42.69
2023-08-27T14:37:13.612Z,42.87
2023-08-27T14:39:44.588Z,43.02
2023-08-27T14:42:15.385Z,42.68
2023-08-27T14:44:45.641Z,42.60
2023-08-27T14:47:20.821Z,42.79
2023-08-27T14:49:53.484Z,42.62
2023-08-27T14:52:24.511Z,42.52
2023-08-27T14:54:55.083Z,42.53
2023-08-27T14:57:27.787Z,42.74
2023-08-27T14:59:58.350Z,42.87
2023-08-27T15:02:28.939Z,42.61
2023-08-27T15:05:01.658Z,42.82
2023-08-27T15:07:33.421Z,43.03
2023-08-27T15:10:04.046Z,42.76
2023-08-27T15:12:35.144Z,42.44
2023-08-27T15:15:05.855Z,42.37
2023-08-27T15:17:36.138Z,43.00
2023-08-27T15:20:10.952Z,42.54
2023-08-27T15:22:41.577Z,42.49
2023-08-27T15:25:13.078Z,42.41
2023-08-27T15:27:44.431Z,43.09
2023-08-27T15:30:16.589Z,42.58
2023-08-27T15:32:47.338Z,42.76
2023-08-27T15:35:19.780Z,42.86
2023-08-27T15:37:51.208Z,42.87
2023-08-27T15:40:21.145Z,42.50
2023-08-27T15:43:11.897Z,42.61
2023-08-27T15:45:42.525Z,43.13
2023-08-27T15:48:14.380Z,43.00
2023-08-27T15:50:45.793Z,43.09
2023-08-27T15:53:18.955Z,42.54
2023-08-27T15:55:49.885Z,42.71
2023-08-27T15:58:20.362Z,42.56
2023-08-27T16:00:51.718Z,42.51
2023-08-27T16:03:22.418Z,43.06
2023-08-27T16:05:54.935Z,42.61
2023-08-27T16:08:25.911Z,42.89
2023-08-27T16:10:56.536Z,42.98
2023-08-27T16:13:27.173Z,42.75
2023-08-27T16:15:58.141Z,42.74
2023-08-27T16:18:28.016Z,43.21
2023-08-27T16:20:59.828Z,42.88
2023-08-27T16:23:29.619Z,43.13
2023-08-27T16:26:00.601Z,42.48
2023-08-27T16:28:31.186Z,42.53
2023-08-27T16:31:01.832Z,42.64
2023-08-27T16:33:32.434Z,42.71
2023-08-27T16:36:05.266Z,42.47
2023-08-27T16:38:35.833Z,42.61
2023-08-27T16:41:06.421Z,42.28
2023-08-27T16:43:37.091Z,42.57
2023-08-27T16:46:06.987Z,42.36
2023-08-27T16:48:37.891Z,42.64
2023-08-27T16:51:10.466Z,41.95
2023-08-27T16:53:43.936Z,42.53
2023-08-27T16:56:14.587Z,42.08
2023-08-27T16:58:45.491Z,41.90
2023-08-27T17:01:15.997Z,42.38
2023-08-27T17:03:46.675Z,42.43
2023-08-27T17:06:18.885Z,42.60
2023-08-27T17:08:49.348Z,41.90
2023-08-27T17:11:20.330Z,42.15
2023-08-27T17:13:50.894Z,42.67
2023-08-27T17:16:21.595Z,42.23
2023-08-27T17:18:51.412Z,42.34
2023-08-27T17:21:26.247Z,42.11
2023-08-27T17:23:57.063Z,42.09
2023-08-27T17:26:26.874Z,42.22
2023-08-27T17:28:56.709Z,41.95
2023-08-27T17:31:26.809Z,41.77
2023-08-27T17:33:57.385Z,42.36
2023-08-27T17:36:30.469Z,41.90
2023-08-27T17:39:00.306Z,41.84
2023-08-27T17:41:33.457Z,41.65
2023-08-27T17:44:04.587Z,42.13
2023-08-27T17:46:34.418Z,41.55
2023-08-27T17:49:04.998Z,41.27
2023-08-27T17:51:37.392Z,41.92
2023-08-27T17:54:08.935Z,41.26
2023-08-27T17:56:39.655Z,41.45
2023-08-27T17:59:12.848Z,41.39
2023-08-27T18:01:44.848Z,41.31
2023-08-27T18:04:15.452Z,41.38
2023-08-27T18:06:47.898Z,41.32
2023-08-27T18:09:19.192Z,41.65
2023-08-27T18:11:49.920Z,41.37
2023-08-27T18:14:20.373Z,41.26
2023-08-27T18:16:51.092Z,41.31
2023-08-27T18:19:21.895Z,41.42
2023-08-27T18:21:54.328Z,41.69
2023-08-27T18:24:24.889Z,41.46
2023-08-27T18:26:55.409Z,41.65
2023-08-27T18:29:25.329Z,41.09
2023-08-27T18:31:55.900Z,41.54
2023-08-27T18:34:26.555Z,41.91
2023-08-27T18:36:58.339Z,41.93
2023-08-27T18:39:28.911Z,41.63
2023-08-27T18:41:59.315Z,41.52
2023-08-27T18:44:30.092Z,41.56
2023-08-27T18:47:00.600Z,41.17
2023-08-27T18:49:30.485Z,41.36
2023-08-27T18:52:02.981Z,41.39
2023-08-27T18:54:32.899Z,41.81
2023-08-27T18:57:03.507Z,41.71
2023-08-27T18:59:34.805Z,41.21
2023-08-27T19:02:06.554Z,41.76
2023-08-27T19:04:37.906Z,41.72
2023-08-27T19:07:10.324Z,41.34
2023-08-27T19:09:43.469Z,41.07
2023-08-27T19:12:16.225Z,41.00
2023-08-27T19:14:51.028Z,41.24
2023-08-27T19:17:22.409Z,41.10
2023-08-27T19:19:56.003Z,41.67
2023-08-27T19:22:28.018Z,41.25
2023-08-27T19:24:58.122Z,41.25
2023-08-27T19:27:28.289Z,41.16
2023-08-27T19:29:58.781Z,41.59
2023-08-27T19:32:29.341Z,41.54
2023-08-27T19:35:00.689Z,41.23
2023-08-27T19:37:34.076Z,41.34
2023-08-27T19:40:05.507Z,41.15
2023-08-27T19:42:36.520Z,41.55
2023-08-27T19:45:09.705Z,41.12
2023-08-27T19:47:42.153Z,41.58
2023-08-27T19:50:15.499Z,41.53
2023-08-27T19:52:47.453Z,41.45
2023-08-27T19:55:17.472Z,41.40
2023-08-27T19:57:47.144Z,41.68
2023-08-27T20:00:18.962Z,41.71
2023-08-27T20:02:49.276Z,41.03
2023-08-27T20:05:21.790Z,41.31
2023-08-27T20:07:52.947Z,41.12
2023-08-27T20:10:23.098Z,41.35
2023-08-27T20:12:53.053Z,41.93
2023-08-27T20:15:23.059Z,41.92
2023-08-27T20:17:53.638Z,41.83
2023-08-27T20:20:27.204Z,42.18
2023-08-27T20:22:59.455Z,41.91
2023-08-27T20:25:30.794Z,42.23
2023-08-27T20:28:01.918Z,41.90
2023-08-27T20:30:32.757Z,41.80
2023-08-27T20:33:03.718Z,41.57
2023-08-27T20:35:34.659Z,41.79
2023-08-27T20:38:07.830Z,41.65
2023-08-27T20:40:40.069Z,41.43
2023-08-27T20:43:11.272Z,41.61
2023-08-27T20:45:46.027Z,42.32
2023-08-27T20:48:16.586Z,41.76
2023-08-27T20:50:46.791Z,42.19
2023-08-27T20:53:19.081Z,42.04
2023-08-27T20:55:49.631Z,42.40
2023-08-27T20:58:20.120Z,42.62
2023-08-27T21:00:49.961Z,42.40
2023-08-27T21:03:19.579Z,42.68
2023-08-27T21:05:49.402Z,42.17
2023-08-27T21:08:21.913Z,42.48
2023-08-27T21:10:51.617Z,41.93
2023-08-27T21:13:21.317Z,42.09
2023-08-27T21:15:55.304Z,42.14
2023-08-27T21:18:25.789Z,42.53
2023-08-27T21:20:57.238Z,42.60
2023-08-27T21:23:29.854Z,42.81
2023-08-27T21:26:00.424Z,42.81
2023-08-27T21:28:31.185Z,42.75
2023-08-27T21:31:17.858Z,42.32
2023-08-27T21:33:53.484Z,42.71
2023-08-27T21:36:23.800Z,42.29
2023-08-27T21:38:55.448Z,43.01
2023-08-27T21:41:25.048Z,42.86
2023-08-27T21:43:55.334Z,42.32
2023-08-27T21:49:12.891Z,43.03
2023-08-27T21:51:43.254Z,43.17
2023-08-27T21:54:15.992Z,42.93
2023-08-27T21:56:46.590Z,43.27
2023-08-27T21:59:17.266Z,42.61
2023-08-27T22:01:47.656Z,42.61
2023-08-27T22:04:20.364Z,43.20
2023-08-27T22:06:50.775Z,42.74
2023-08-27T22:09:22.531Z,43.28
2023-08-27T22:11:53.236Z,42.80
2023-08-27T22:14:23.671Z,43.01
2023-08-27T22:16:53.819Z,43.21
2023-08-27T22:19:24.594Z,43.39
2023-08-27T22:21:54.543Z,43.07
2023-08-27T22:24:26.731Z,43.21
2023-08-27T22:26:56.964Z,43.50
2023-08-27T22:29:26.706Z,43.70
2023-08-27T22:31:57.251Z,43.34
2023-08-27T22:34:27.191Z,43.19
2023-08-27T22:36:56.946Z,43.31
2023-08-27T22:39:29.209Z,43.29
2023-08-27T22:41:58.980Z,43.12
2023-08-27T22:44:29.138Z,43.57
2023-08-27T22:46:58.864Z,43.21
2023-08-27T22:49:29.182Z,43.26
2023-08-27T22:52:07.251Z,43.14
2023-08-27T22:54:41.390Z,43.40
2023-08-27T22:57:11.864Z,43.50
2023-08-27T22:59:42.566Z,43.24
2023-08-27T23:02:12.997Z,43.67
2023-08-27T23:04:44.135Z,43.22
2023-08-27T23:07:14.328Z,43.88
2023-08-27T23:09:47.620Z,43.72
2023-08-27T23:12:18.064Z,43.54
2023-08-27T23:14:48.400Z,43.55
2023-08-27T23:17:18.057Z,43.31
2023-08-27T23:19:49.515Z,44.01
2023-08-27T23:22:19.825Z,44.10
2023-08-27T23:24:51.760Z,44.01
2023-08-27T23:27:22.215Z,43.51
2023-08-27T23:29:53.681Z,43.47
2023-08-27T23:32:24.403Z,43.79
2023-08-27T23:34:54.374Z,43.58
2023-08-27T23:37:25.429Z,43.81
2023-08-27T23:39:57.980Z,43.86
2023-08-27T23:42:28.408Z,44.21
2023-08-27T23:45:01.334Z,43.54
2023-08-27T23:47:32.581Z,44.26
2023-08-27T23:50:02.401Z,43.77
2023-08-27T23:52:32.644Z,43.92
2023-08-27T23:55:06.013Z,44.22
2023-08-27T23:57:36.676Z,44.14
